Paradise, Missouri
Current Conditions -  °F | °C
As of 3:53 PM on Friday 28 Nov 2014 (Local Time) from KMCI Reporting Station
Broken Clouds Broken Clouds  
Wind Chill: 13°   Ceiling: 25000
Heat Index: 13°   Visibility: 10mi
Dew Point:   Wind: 12mph
Humidity: 44%   Direction: 200°SSW
Pressure: 29.79"   Gusts: NA
Location:  39.3944°N, 94.5382°W
Report Text: KMCI 282153Z 20010KT 10SM BKN250 13/01 A2979 RMK AO2 SLP090 T01330011
Loading
Personal Weather Stations






























Interactive Weather Map New forecast layout! Learn more

10-Day Weather Forecast

Advertisements
Track Severe Weather on mobile